sensor_id;sensor_type;location;lat;lon;timestamp;P1;durP1;ratioP1;P2;durP2;ratioP2
17921;SDS011;9086;50.966;3.144;2022-12-07T00:01:08;7.23;;;5.90;;
17921;SDS011;9086;50.966;3.144;2022-12-07T00:03:36;8.67;;;6.00;;
17921;SDS011;9086;50.966;3.144;2022-12-07T00:06:03;8.70;;;6.50;;
17921;SDS011;9086;50.966;3.144;2022-12-07T00:08:29;8.63;;;6.33;;
17921;SDS011;9086;50.966;3.144;2022-12-07T00:10:59;6.77;;;5.17;;
17921;SDS011;9086;50.966;3.144;2022-12-07T00:13:26;5.77;;;5.17;;
17921;SDS011;9086;50.966;3.144;2022-12-07T00:15:52;7.03;;;5.17;;
17921;SDS011;9086;50.966;3.144;2022-12-07T00:18:18;9.30;;;4.90;;
17921;SDS011;9086;50.966;3.144;2022-12-07T00:20:44;8.63;;;5.30;;
17921;SDS011;9086;50.966;3.144;2022-12-07T00:23:10;9.13;;;5.10;;
17921;SDS011;9086;50.966;3.144;2022-12-07T00:25:36;4.83;;;4.43;;
17921;SDS011;9086;50.966;3.144;2022-12-07T00:28:02;9.27;;;4.40;;
17921;SDS011;9086;50.966;3.144;2022-12-07T00:30:28;8.63;;;5.17;;
17921;SDS011;9086;50.966;3.144;2022-12-07T00:32:54;6.27;;;4.30;;
17921;SDS011;9086;50.966;3.144;2022-12-07T00:35:20;8.30;;;4.57;;
17921;SDS011;9086;50.966;3.144;2022-12-07T00:37:46;5.30;;;4.27;;
17921;SDS011;9086;50.966;3.144;2022-12-07T00:40:12;7.20;;;4.97;;
17921;SDS011;9086;50.966;3.144;2022-12-07T00:42:38;6.03;;;4.60;;
17921;SDS011;9086;50.966;3.144;2022-12-07T00:45:04;8.73;;;4.97;;
17921;SDS011;9086;50.966;3.144;2022-12-07T00:47:31;7.57;;;4.23;;
17921;SDS011;9086;50.966;3.144;2022-12-07T00:49:57;8.33;;;4.13;;
17921;SDS011;9086;50.966;3.144;2022-12-07T00:52:23;9.10;;;4.07;;
17921;SDS011;9086;50.966;3.144;2022-12-07T00:54:49;6.90;;;3.70;;
17921;SDS011;9086;50.966;3.144;2022-12-07T00:57:15;5.63;;;3.90;;
17921;SDS011;9086;50.966;3.144;2022-12-07T00:59:41;6.30;;;3.77;;
17921;SDS011;9086;50.966;3.144;2022-12-07T01:02:07;5.47;;;4.03;;
17921;SDS011;9086;50.966;3.144;2022-12-07T01:04:33;4.90;;;3.60;;
17921;SDS011;9086;50.966;3.144;2022-12-07T01:07:00;5.87;;;4.23;;
17921;SDS011;9086;50.966;3.144;2022-12-07T01:09:26;5.57;;;3.43;;
17921;SDS011;9086;50.966;3.144;2022-12-07T01:11:52;6.27;;;3.40;;
17921;SDS011;9086;50.966;3.144;2022-12-07T01:14:18;6.33;;;3.40;;
17921;SDS011;9086;50.966;3.144;2022-12-07T01:16:44;5.20;;;3.93;;
17921;SDS011;9086;50.966;3.144;2022-12-07T01:19:10;6.40;;;3.50;;
17921;SDS011;9086;50.966;3.144;2022-12-07T01:21:36;5.23;;;3.90;;
17921;SDS011;9086;50.966;3.144;2022-12-07T01:24:06;5.20;;;3.67;;
17921;SDS011;9086;50.966;3.144;2022-12-07T01:26:32;8.77;;;3.43;;
17921;SDS011;9086;50.966;3.144;2022-12-07T01:28:58;6.70;;;3.40;;
17921;SDS011;9086;50.966;3.144;2022-12-07T01:31:26;8.13;;;3.47;;
17921;SDS011;9086;50.966;3.144;2022-12-07T01:33:53;7.70;;;3.77;;
17921;SDS011;9086;50.966;3.144;2022-12-07T01:36:29;6.73;;;4.17;;
17921;SDS011;9086;50.966;3.144;2022-12-07T01:38:57;6.60;;;4.00;;
17921;SDS011;9086;50.966;3.144;2022-12-07T01:41:25;5.47;;;3.67;;
17921;SDS011;9086;50.966;3.144;2022-12-07T01:44:11;7.07;;;3.47;;
17921;SDS011;9086;50.966;3.144;2022-12-07T01:46:37;8.87;;;3.90;;
17921;SDS011;9086;50.966;3.144;2022-12-07T01:49:04;5.37;;;3.47;;
17921;SDS011;9086;50.966;3.144;2022-12-07T01:51:31;7.57;;;3.80;;
17921;SDS011;9086;50.966;3.144;2022-12-07T01:53:57;5.97;;;3.47;;
17921;SDS011;9086;50.966;3.144;2022-12-07T01:56:24;5.47;;;4.20;;
17921;SDS011;9086;50.966;3.144;2022-12-07T01:58:52;7.37;;;4.77;;
17921;SDS011;9086;50.966;3.144;2022-12-07T02:01:18;4.40;;;4.00;;
17921;SDS011;9086;50.966;3.144;2022-12-07T02:03:45;6.17;;;3.50;;
17921;SDS011;9086;50.966;3.144;2022-12-07T02:06:13;6.80;;;3.93;;
17921;SDS011;9086;50.966;3.144;2022-12-07T02:08:41;6.17;;;4.00;;
17921;SDS011;9086;50.966;3.144;2022-12-07T02:11:08;6.33;;;3.80;;
17921;SDS011;9086;50.966;3.144;2022-12-07T02:13:35;5.60;;;4.50;;
17921;SDS011;9086;50.966;3.144;2022-12-07T02:26:39;7.07;;;4.13;;
17921;SDS011;9086;50.966;3.144;2022-12-07T02:29:22;7.53;;;4.50;;
17921;SDS011;9086;50.966;3.144;2022-12-07T02:34:30;6.40;;;4.53;;
17921;SDS011;9086;50.966;3.144;2022-12-07T02:37:00;7.57;;;4.20;;
17921;SDS011;9086;50.966;3.144;2022-12-07T02:39:48;5.43;;;4.70;;
17921;SDS011;9086;50.966;3.144;2022-12-07T02:42:17;7.67;;;4.90;;
17921;SDS011;9086;50.966;3.144;2022-12-07T02:44:44;6.50;;;4.47;;
17921;SDS011;9086;50.966;3.144;2022-12-07T02:47:12;5.80;;;4.57;;
17921;SDS011;9086;50.966;3.144;2022-12-07T02:49:40;9.50;;;4.80;;
17921;SDS011;9086;50.966;3.144;2022-12-07T02:52:06;7.20;;;4.63;;
17921;SDS011;9086;50.966;3.144;2022-12-07T02:54:32;6.23;;;3.80;;
17921;SDS011;9086;50.966;3.144;2022-12-07T03:10:01;7.03;;;4.10;;
17921;SDS011;9086;50.966;3.144;2022-12-07T03:12:29;6.17;;;4.03;;
17921;SDS011;9086;50.966;3.144;2022-12-07T03:15:00;5.43;;;3.83;;
17921;SDS011;9086;50.966;3.144;2022-12-07T03:17:28;6.33;;;3.50;;
17921;SDS011;9086;50.966;3.144;2022-12-07T03:19:57;8.50;;;3.90;;
17921;SDS011;9086;50.966;3.144;2022-12-07T03:22:23;11.73;;;4.73;;
17921;SDS011;9086;50.966;3.144;2022-12-07T03:24:54;6.30;;;4.13;;
17921;SDS011;9086;50.966;3.144;2022-12-07T03:27:25;5.20;;;3.80;;
17921;SDS011;9086;50.966;3.144;2022-12-07T03:29:54;5.20;;;3.43;;
17921;SDS011;9086;50.966;3.144;2022-12-07T03:32:26;4.23;;;3.80;;
17921;SDS011;9086;50.966;3.144;2022-12-07T03:34:56;4.57;;;3.03;;
17921;SDS011;9086;50.966;3.144;2022-12-07T03:37:26;5.80;;;3.57;;
17921;SDS011;9086;50.966;3.144;2022-12-07T03:40:11;4.40;;;3.17;;
17921;SDS011;9086;50.966;3.144;2022-12-07T03:42:39;4.93;;;3.30;;
17921;SDS011;9086;50.966;3.144;2022-12-07T03:45:05;5.87;;;3.50;;
17921;SDS011;9086;50.966;3.144;2022-12-07T03:47:43;4.20;;;3.23;;
17921;SDS011;9086;50.966;3.144;2022-12-07T03:50:17;8.93;;;3.70;;
17921;SDS011;9086;50.966;3.144;2022-12-07T03:52:47;8.83;;;4.00;;
17921;SDS011;9086;50.966;3.144;2022-12-07T03:55:20;6.63;;;3.67;;
17921;SDS011;9086;50.966;3.144;2022-12-07T03:57:49;5.50;;;3.97;;
17921;SDS011;9086;50.966;3.144;2022-12-07T04:00:16;9.67;;;4.20;;
17921;SDS011;9086;50.966;3.144;2022-12-07T04:02:43;9.20;;;4.20;;
17921;SDS011;9086;50.966;3.144;2022-12-07T04:05:09;8.13;;;3.87;;
17921;SDS011;9086;50.966;3.144;2022-12-07T04:07:36;7.07;;;3.63;;
17921;SDS011;9086;50.966;3.144;2022-12-07T04:10:02;4.67;;;3.17;;
17921;SDS011;9086;50.966;3.144;2022-12-07T04:12:29;9.37;;;4.60;;
17921;SDS011;9086;50.966;3.144;2022-12-07T04:14:55;4.60;;;3.20;;
17921;SDS011;9086;50.966;3.144;2022-12-07T04:17:21;6.13;;;3.80;;
17921;SDS011;9086;50.966;3.144;2022-12-07T04:19:47;5.77;;;4.07;;
17921;SDS011;9086;50.966;3.144;2022-12-07T04:22:13;11.17;;;4.90;;
17921;SDS011;9086;50.966;3.144;2022-12-07T04:24:39;6.03;;;4.13;;
17921;SDS011;9086;50.966;3.144;2022-12-07T04:27:05;7.93;;;5.47;;
17921;SDS011;9086;50.966;3.144;2022-12-07T04:29:31;8.47;;;5.37;;
17921;SDS011;9086;50.966;3.144;2022-12-07T04:31:57;8.33;;;5.23;;
17921;SDS011;9086;50.966;3.144;2022-12-07T04:34:23;7.63;;;5.53;;
17921;SDS011;9086;50.966;3.144;2022-12-07T04:36:49;7.37;;;5.03;;
17921;SDS011;9086;50.966;3.144;2022-12-07T04:41:44;8.23;;;4.23;;
17921;SDS011;9086;50.966;3.144;2022-12-07T04:44:10;10.63;;;5.53;;
17921;SDS011;9086;50.966;3.144;2022-12-07T04:46:39;7.30;;;4.43;;
17921;SDS011;9086;50.966;3.144;2022-12-07T04:49:05;10.37;;;5.37;;
17921;SDS011;9086;50.966;3.144;2022-12-07T04:51:31;8.80;;;5.03;;
17921;SDS011;9086;50.966;3.144;2022-12-07T04:53:57;10.87;;;5.43;;
17921;SDS011;9086;50.966;3.144;2022-12-07T04:56:23;9.63;;;4.53;;
17921;SDS011;9086;50.966;3.144;2022-12-07T04:58:50;8.03;;;4.77;;
17921;SDS011;9086;50.966;3.144;2022-12-07T05:01:17;6.60;;;3.70;;
17921;SDS011;9086;50.966;3.144;2022-12-07T05:03:43;7.53;;;4.20;;
17921;SDS011;9086;50.966;3.144;2022-12-07T05:06:10;6.53;;;4.00;;
17921;SDS011;9086;50.966;3.144;2022-12-07T05:08:36;6.17;;;4.70;;
17921;SDS011;9086;50.966;3.144;2022-12-07T05:11:03;6.27;;;4.23;;
17921;SDS011;9086;50.966;3.144;2022-12-07T05:13:29;6.00;;;4.33;;
17921;SDS011;9086;50.966;3.144;2022-12-07T05:15:55;4.20;;;3.80;;
17921;SDS011;9086;50.966;3.144;2022-12-07T05:18:21;5.23;;;4.20;;
17921;SDS011;9086;50.966;3.144;2022-12-07T05:20:47;6.53;;;4.20;;
17921;SDS011;9086;50.966;3.144;2022-12-07T05:23:14;4.40;;;4.00;;
17921;SDS011;9086;50.966;3.144;2022-12-07T05:25:40;4.10;;;3.70;;
17921;SDS011;9086;50.966;3.144;2022-12-07T05:28:06;6.80;;;3.80;;
17921;SDS011;9086;50.966;3.144;2022-12-07T05:30:32;6.53;;;4.03;;
17921;SDS011;9086;50.966;3.144;2022-12-07T05:32:58;6.23;;;3.90;;
17921;SDS011;9086;50.966;3.144;2022-12-07T05:35:24;6.80;;;3.73;;
17921;SDS011;9086;50.966;3.144;2022-12-07T05:37:50;7.93;;;3.73;;
17921;SDS011;9086;50.966;3.144;2022-12-07T05:40:16;6.63;;;3.73;;
17921;SDS011;9086;50.966;3.144;2022-12-07T05:42:44;9.43;;;3.87;;
17921;SDS011;9086;50.966;3.144;2022-12-07T05:45:10;6.40;;;3.73;;
17921;SDS011;9086;50.966;3.144;2022-12-07T05:47:37;6.00;;;3.63;;
17921;SDS011;9086;50.966;3.144;2022-12-07T05:50:04;8.27;;;3.93;;
17921;SDS011;9086;50.966;3.144;2022-12-07T05:52:30;7.83;;;3.50;;
17921;SDS011;9086;50.966;3.144;2022-12-07T05:54:56;9.27;;;4.30;;
17921;SDS011;9086;50.966;3.144;2022-12-07T05:57:22;8.10;;;3.87;;
17921;SDS011;9086;50.966;3.144;2022-12-07T05:59:48;6.43;;;3.60;;
17921;SDS011;9086;50.966;3.144;2022-12-07T06:02:15;5.30;;;3.27;;
17921;SDS011;9086;50.966;3.144;2022-12-07T06:04:43;6.93;;;3.20;;
17921;SDS011;9086;50.966;3.144;2022-12-07T06:07:10;9.27;;;3.03;;
17921;SDS011;9086;50.966;3.144;2022-12-07T06:09:36;5.03;;;3.43;;
17921;SDS011;9086;50.966;3.144;2022-12-07T06:12:03;8.40;;;3.30;;
17921;SDS011;9086;50.966;3.144;2022-12-07T06:14:48;9.53;;;3.73;;
17921;SDS011;9086;50.966;3.144;2022-12-07T06:17:14;7.47;;;3.93;;
17921;SDS011;9086;50.966;3.144;2022-12-07T06:19:41;5.13;;;3.37;;
17921;SDS011;9086;50.966;3.144;2022-12-07T06:22:07;6.70;;;3.30;;
17921;SDS011;9086;50.966;3.144;2022-12-07T06:24:34;8.97;;;3.90;;
17921;SDS011;9086;50.966;3.144;2022-12-07T06:27:00;8.10;;;4.07;;
17921;SDS011;9086;50.966;3.144;2022-12-07T06:29:26;7.17;;;3.47;;
17921;SDS011;9086;50.966;3.144;2022-12-07T06:31:52;10.50;;;4.20;;
17921;SDS011;9086;50.966;3.144;2022-12-07T06:34:19;7.93;;;4.60;;
17921;SDS011;9086;50.966;3.144;2022-12-07T06:36:47;6.83;;;4.27;;
17921;SDS011;9086;50.966;3.144;2022-12-07T06:39:16;9.37;;;5.00;;
17921;SDS011;9086;50.966;3.144;2022-12-07T06:41:42;7.10;;;4.13;;
17921;SDS011;9086;50.966;3.144;2022-12-07T06:44:08;5.80;;;4.27;;
17921;SDS011;9086;50.966;3.144;2022-12-07T06:46:35;7.90;;;4.27;;
17921;SDS011;9086;50.966;3.144;2022-12-07T06:49:01;8.20;;;3.83;;
17921;SDS011;9086;50.966;3.144;2022-12-07T06:51:27;8.70;;;4.63;;
17921;SDS011;9086;50.966;3.144;2022-12-07T06:53:53;6.60;;;4.73;;
17921;SDS011;9086;50.966;3.144;2022-12-07T06:56:19;7.17;;;4.47;;
17921;SDS011;9086;50.966;3.144;2022-12-07T06:58:45;7.63;;;4.67;;
17921;SDS011;9086;50.966;3.144;2022-12-07T07:01:15;8.57;;;4.53;;
17921;SDS011;9086;50.966;3.144;2022-12-07T07:03:41;7.70;;;4.40;;
17921;SDS011;9086;50.966;3.144;2022-12-07T07:06:08;10.87;;;4.33;;
17921;SDS011;9086;50.966;3.144;2022-12-07T07:08:37;5.23;;;4.33;;
17921;SDS011;9086;50.966;3.144;2022-12-07T07:11:04;9.30;;;4.03;;
17921;SDS011;9086;50.966;3.144;2022-12-07T07:13:30;6.07;;;3.23;;
17921;SDS011;9086;50.966;3.144;2022-12-07T07:15:56;6.93;;;4.00;;
17921;SDS011;9086;50.966;3.144;2022-12-07T07:18:22;7.27;;;4.27;;
17921;SDS011;9086;50.966;3.144;2022-12-07T07:20:49;6.30;;;4.57;;
17921;SDS011;9086;50.966;3.144;2022-12-07T07:23:15;6.67;;;4.97;;
17921;SDS011;9086;50.966;3.144;2022-12-07T07:25:41;5.70;;;4.53;;
17921;SDS011;9086;50.966;3.144;2022-12-07T07:28:07;5.23;;;4.53;;
17921;SDS011;9086;50.966;3.144;2022-12-07T07:30:33;7.23;;;4.80;;
17921;SDS011;9086;50.966;3.144;2022-12-07T07:33:00;5.63;;;4.23;;
17921;SDS011;9086;50.966;3.144;2022-12-07T07:35:27;8.20;;;4.10;;
17921;SDS011;9086;50.966;3.144;2022-12-07T07:37:53;11.27;;;4.23;;
17921;SDS011;9086;50.966;3.144;2022-12-07T07:40:19;9.70;;;4.23;;
17921;SDS011;9086;50.966;3.144;2022-12-07T07:42:49;7.00;;;4.50;;
17921;SDS011;9086;50.966;3.144;2022-12-07T07:45:15;9.13;;;5.30;;
17921;SDS011;9086;50.966;3.144;2022-12-07T07:47:41;7.83;;;5.10;;
17921;SDS011;9086;50.966;3.144;2022-12-07T07:50:07;8.90;;;4.90;;
17921;SDS011;9086;50.966;3.144;2022-12-07T07:52:34;8.43;;;4.57;;
17921;SDS011;9086;50.966;3.144;2022-12-07T07:55:00;9.83;;;6.23;;
17921;SDS011;9086;50.966;3.144;2022-12-07T07:57:26;8.77;;;6.17;;
17921;SDS011;9086;50.966;3.144;2022-12-07T07:59:52;13.57;;;6.40;;
17921;SDS011;9086;50.966;3.144;2022-12-07T08:02:19;14.67;;;7.30;;
17921;SDS011;9086;50.966;3.144;2022-12-07T08:04:45;9.23;;;6.37;;
17921;SDS011;9086;50.966;3.144;2022-12-07T08:07:12;11.23;;;7.23;;
17921;SDS011;9086;50.966;3.144;2022-12-07T08:09:38;9.00;;;6.43;;
17921;SDS011;9086;50.966;3.144;2022-12-07T08:12:04;12.47;;;8.83;;
17921;SDS011;9086;50.966;3.144;2022-12-07T08:14:31;10.33;;;9.33;;
17921;SDS011;9086;50.966;3.144;2022-12-07T08:16:57;11.37;;;9.00;;
17921;SDS011;9086;50.966;3.144;2022-12-07T08:19:23;11.93;;;10.87;;
17921;SDS011;9086;50.966;3.144;2022-12-07T08:21:49;9.83;;;8.50;;
17921;SDS011;9086;50.966;3.144;2022-12-07T08:24:16;13.93;;;10.57;;
17921;SDS011;9086;50.966;3.144;2022-12-07T08:26:42;9.90;;;9.07;;
17921;SDS011;9086;50.966;3.144;2022-12-07T08:29:08;14.13;;;9.67;;
17921;SDS011;9086;50.966;3.144;2022-12-07T08:31:34;11.17;;;8.83;;
17921;SDS011;9086;50.966;3.144;2022-12-07T08:34:00;9.50;;;8.77;;
17921;SDS011;9086;50.966;3.144;2022-12-07T08:36:26;11.00;;;9.97;;
17921;SDS011;9086;50.966;3.144;2022-12-07T08:38:52;11.23;;;10.53;;
17921;SDS011;9086;50.966;3.144;2022-12-07T08:41:18;15.50;;;14.07;;
17921;SDS011;9086;50.966;3.144;2022-12-07T08:43:44;13.80;;;12.77;;
17921;SDS011;9086;50.966;3.144;2022-12-07T08:46:18;13.17;;;11.90;;
17921;SDS011;9086;50.966;3.144;2022-12-07T08:48:55;12.53;;;11.73;;
17921;SDS011;9086;50.966;3.144;2022-12-07T08:51:22;13.43;;;12.40;;
17921;SDS011;9086;50.966;3.144;2022-12-07T08:53:49;12.33;;;11.47;;
17921;SDS011;9086;50.966;3.144;2022-12-07T08:56:15;11.93;;;9.83;;
17921;SDS011;9086;50.966;3.144;2022-12-07T08:58:41;10.17;;;9.23;;
17921;SDS011;9086;50.966;3.144;2022-12-07T09:01:07;11.23;;;10.37;;
17921;SDS011;9086;50.966;3.144;2022-12-07T09:03:33;9.20;;;8.60;;
17921;SDS011;9086;50.966;3.144;2022-12-07T09:06:00;8.93;;;8.10;;
17921;SDS011;9086;50.966;3.144;2022-12-07T09:08:28;11.37;;;10.33;;
17921;SDS011;9086;50.966;3.144;2022-12-07T09:10:55;9.20;;;8.30;;
17921;SDS011;9086;50.966;3.144;2022-12-07T09:13:21;9.70;;;8.73;;
17921;SDS011;9086;50.966;3.144;2022-12-07T09:15:51;8.47;;;7.97;;
17921;SDS011;9086;50.966;3.144;2022-12-07T09:18:17;9.73;;;9.03;;
17921;SDS011;9086;50.966;3.144;2022-12-07T09:20:43;9.50;;;7.07;;
17921;SDS011;9086;50.966;3.144;2022-12-07T09:23:09;9.07;;;8.30;;
17921;SDS011;9086;50.966;3.144;2022-12-07T09:25:35;8.47;;;7.23;;
17921;SDS011;9086;50.966;3.144;2022-12-07T09:28:01;10.20;;;8.23;;
17921;SDS011;9086;50.966;3.144;2022-12-07T09:30:28;10.20;;;9.33;;
17921;SDS011;9086;50.966;3.144;2022-12-07T09:32:54;10.33;;;9.40;;
17921;SDS011;9086;50.966;3.144;2022-12-07T09:35:21;9.23;;;8.33;;
17921;SDS011;9086;50.966;3.144;2022-12-07T09:37:47;9.40;;;8.70;;
17921;SDS011;9086;50.966;3.144;2022-12-07T09:40:13;12.90;;;11.90;;
17921;SDS011;9086;50.966;3.144;2022-12-07T09:42:51;10.47;;;9.83;;
17921;SDS011;9086;50.966;3.144;2022-12-07T09:45:25;16.77;;;15.57;;
17921;SDS011;9086;50.966;3.144;2022-12-07T09:47:52;20.90;;;19.80;;
17921;SDS011;9086;50.966;3.144;2022-12-07T09:50:21;22.43;;;21.20;;
17921;SDS011;9086;50.966;3.144;2022-12-07T09:52:48;27.67;;;26.13;;
17921;SDS011;9086;50.966;3.144;2022-12-07T09:55:16;30.37;;;28.83;;
17921;SDS011;9086;50.966;3.144;2022-12-07T09:57:45;31.33;;;29.93;;
17921;SDS011;9086;50.966;3.144;2022-12-07T10:00:13;26.43;;;25.20;;
17921;SDS011;9086;50.966;3.144;2022-12-07T10:02:40;16.73;;;15.87;;
17921;SDS011;9086;50.966;3.144;2022-12-07T10:05:09;12.40;;;11.57;;
17921;SDS011;9086;50.966;3.144;2022-12-07T10:07:39;11.23;;;10.07;;
17921;SDS011;9086;50.966;3.144;2022-12-07T10:10:06;6.97;;;6.47;;
17921;SDS011;9086;50.966;3.144;2022-12-07T10:12:54;6.73;;;6.17;;
17921;SDS011;9086;50.966;3.144;2022-12-07T10:15:21;6.63;;;4.73;;
17921;SDS011;9086;50.966;3.144;2022-12-07T10:17:48;4.87;;;4.37;;
17921;SDS011;9086;50.966;3.144;2022-12-07T10:20:16;4.20;;;3.80;;
17921;SDS011;9086;50.966;3.144;2022-12-07T10:22:56;4.77;;;3.10;;
17921;SDS011;9086;50.966;3.144;2022-12-07T10:25:25;3.50;;;3.20;;
17921;SDS011;9086;50.966;3.144;2022-12-07T10:27:58;6.50;;;3.60;;
17921;SDS011;9086;50.966;3.144;2022-12-07T10:30:25;5.43;;;3.23;;
17921;SDS011;9086;50.966;3.144;2022-12-07T10:32:51;4.70;;;3.70;;
17921;SDS011;9086;50.966;3.144;2022-12-07T10:35:27;5.50;;;3.77;;
17921;SDS011;9086;50.966;3.144;2022-12-07T10:37:54;6.20;;;3.43;;
17921;SDS011;9086;50.966;3.144;2022-12-07T10:42:47;3.07;;;2.30;;
17921;SDS011;9086;50.966;3.144;2022-12-07T10:45:25;2.63;;;2.43;;
17921;SDS011;9086;50.966;3.144;2022-12-07T10:48:01;3.13;;;2.07;;
17921;SDS011;9086;50.966;3.144;2022-12-07T10:58:16;4.70;;;1.73;;
17921;SDS011;9086;50.966;3.144;2022-12-07T11:03:47;5.63;;;3.43;;
17921;SDS011;9086;50.966;3.144;2022-12-07T11:14:09;4.30;;;1.63;;
17921;SDS011;9086;50.966;3.144;2022-12-07T11:16:56;4.07;;;2.00;;
17921;SDS011;9086;50.966;3.144;2022-12-07T11:21:58;5.47;;;2.20;;
17921;SDS011;9086;50.966;3.144;2022-12-07T11:24:49;3.77;;;1.90;;
17921;SDS011;9086;50.966;3.144;2022-12-07T11:30:00;4.20;;;1.70;;
17921;SDS011;9086;50.966;3.144;2022-12-07T11:37:42;2.43;;;1.90;;
17921;SDS011;9086;50.966;3.144;2022-12-07T11:42:58;6.30;;;3.30;;
17921;SDS011;9086;50.966;3.144;2022-12-07T11:45:26;3.93;;;2.17;;
17921;SDS011;9086;50.966;3.144;2022-12-07T11:53:20;3.33;;;1.37;;
17921;SDS011;9086;50.966;3.144;2022-12-07T11:59:00;4.00;;;1.80;;
17921;SDS011;9086;50.966;3.144;2022-12-07T12:03:42;2.50;;;1.40;;
17921;SDS011;9086;50.966;3.144;2022-12-07T12:06:10;0.90;;;0.90;;
17921;SDS011;9086;50.966;3.144;2022-12-07T12:08:38;1.53;;;1.20;;
17921;SDS011;9086;50.966;3.144;2022-12-07T12:11:26;4.30;;;1.20;;
17921;SDS011;9086;50.966;3.144;2022-12-07T12:19:16;1.90;;;0.93;;
17921;SDS011;9086;50.966;3.144;2022-12-07T12:22:27;2.07;;;0.90;;
17921;SDS011;9086;50.966;3.144;2022-12-07T12:24:52;1.60;;;1.00;;
17921;SDS011;9086;50.966;3.144;2022-12-07T12:27:26;5.27;;;1.47;;
17921;SDS011;9086;50.966;3.144;2022-12-07T12:29:55;4.37;;;1.40;;
17921;SDS011;9086;50.966;3.144;2022-12-07T12:32:36;2.93;;;1.50;;
17921;SDS011;9086;50.966;3.144;2022-12-07T12:35:50;4.30;;;1.80;;
17921;SDS011;9086;50.966;3.144;2022-12-07T12:37:51;3.03;;;1.40;;
17921;SDS011;9086;50.966;3.144;2022-12-07T12:42:53;4.93;;;1.80;;
17921;SDS011;9086;50.966;3.144;2022-12-07T12:45:23;3.70;;;1.80;;
17921;SDS011;9086;50.966;3.144;2022-12-07T12:48:02;4.47;;;1.83;;
17921;SDS011;9086;50.966;3.144;2022-12-07T12:50:32;5.60;;;1.97;;
17921;SDS011;9086;50.966;3.144;2022-12-07T13:00:47;4.97;;;2.27;;
17921;SDS011;9086;50.966;3.144;2022-12-07T13:03:26;3.50;;;1.93;;
17921;SDS011;9086;50.966;3.144;2022-12-07T13:08:39;4.50;;;2.53;;
17921;SDS011;9086;50.966;3.144;2022-12-07T13:11:27;3.27;;;1.50;;
17921;SDS011;9086;50.966;3.144;2022-12-07T13:14:35;2.77;;;1.67;;
17921;SDS011;9086;50.966;3.144;2022-12-07T13:16:41;3.27;;;1.67;;
17921;SDS011;9086;50.966;3.144;2022-12-07T13:21:59;7.97;;;1.70;;
17921;SDS011;9086;50.966;3.144;2022-12-07T13:24:26;4.93;;;2.30;;
17921;SDS011;9086;50.966;3.144;2022-12-07T13:26:54;4.43;;;2.10;;
17921;SDS011;9086;50.966;3.144;2022-12-07T13:29:21;3.57;;;1.87;;
17921;SDS011;9086;50.966;3.144;2022-12-07T13:31:54;2.53;;;1.90;;
17921;SDS011;9086;50.966;3.144;2022-12-07T13:34:31;1.50;;;1.20;;
17921;SDS011;9086;50.966;3.144;2022-12-07T13:37:10;4.83;;;1.50;;
17921;SDS011;9086;50.966;3.144;2022-12-07T13:39:57;4.00;;;1.17;;
17921;SDS011;9086;50.966;3.144;2022-12-07T13:44:53;2.17;;;1.13;;
17921;SDS011;9086;50.966;3.144;2022-12-07T13:47:35;1.70;;;1.17;;
17921;SDS011;9086;50.966;3.144;2022-12-07T13:50:21;3.97;;;1.27;;
17921;SDS011;9086;50.966;3.144;2022-12-07T13:52:48;3.33;;;1.07;;
17921;SDS011;9086;50.966;3.144;2022-12-07T13:55:14;2.03;;;1.30;;
17921;SDS011;9086;50.966;3.144;2022-12-07T13:57:41;2.10;;;0.70;;
17921;SDS011;9086;50.966;3.144;2022-12-07T14:00:17;3.03;;;0.90;;
17921;SDS011;9086;50.966;3.144;2022-12-07T14:06:02;5.73;;;1.20;;
17921;SDS011;9086;50.966;3.144;2022-12-07T14:08:29;1.53;;;0.70;;
17921;SDS011;9086;50.966;3.144;2022-12-07T14:10:55;3.00;;;0.97;;
17921;SDS011;9086;50.966;3.144;2022-12-07T14:13:27;1.87;;;1.10;;
17921;SDS011;9086;50.966;3.144;2022-12-07T14:15:54;4.13;;;1.00;;
17921;SDS011;9086;50.966;3.144;2022-12-07T14:18:27;3.63;;;1.23;;
17921;SDS011;9086;50.966;3.144;2022-12-07T14:21:13;5.20;;;1.50;;
17921;SDS011;9086;50.966;3.144;2022-12-07T14:23:41;6.00;;;1.87;;
17921;SDS011;9086;50.966;3.144;2022-12-07T14:26:08;2.27;;;1.50;;
17921;SDS011;9086;50.966;3.144;2022-12-07T14:28:37;2.93;;;1.87;;
17921;SDS011;9086;50.966;3.144;2022-12-07T14:31:03;5.63;;;1.90;;
17921;SDS011;9086;50.966;3.144;2022-12-07T14:33:38;3.80;;;1.73;;
17921;SDS011;9086;50.966;3.144;2022-12-07T14:36:04;3.53;;;1.90;;
17921;SDS011;9086;50.966;3.144;2022-12-07T14:38:30;3.33;;;2.17;;
17921;SDS011;9086;50.966;3.144;2022-12-07T14:40:57;6.13;;;2.10;;
17921;SDS011;9086;50.966;3.144;2022-12-07T14:43:43;5.60;;;2.13;;
17921;SDS011;9086;50.966;3.144;2022-12-07T14:46:09;5.87;;;2.77;;
17921;SDS011;9086;50.966;3.144;2022-12-07T14:48:35;6.10;;;3.47;;
17921;SDS011;9086;50.966;3.144;2022-12-07T14:51:01;8.23;;;2.83;;
17921;SDS011;9086;50.966;3.144;2022-12-07T14:53:29;4.70;;;2.50;;
17921;SDS011;9086;50.966;3.144;2022-12-07T14:56:06;2.53;;;1.80;;
17921;SDS011;9086;50.966;3.144;2022-12-07T14:58:32;6.60;;;1.90;;
17921;SDS011;9086;50.966;3.144;2022-12-07T15:00:58;1.80;;;0.90;;
17921;SDS011;9086;50.966;3.144;2022-12-07T15:03:24;2.93;;;1.23;;
17921;SDS011;9086;50.966;3.144;2022-12-07T15:05:51;1.37;;;1.13;;
17921;SDS011;9086;50.966;3.144;2022-12-07T15:08:17;2.23;;;1.20;;
17921;SDS011;9086;50.966;3.144;2022-12-07T15:10:43;3.07;;;1.40;;
17921;SDS011;9086;50.966;3.144;2022-12-07T15:13:09;4.00;;;1.90;;
17921;SDS011;9086;50.966;3.144;2022-12-07T15:15:54;3.33;;;1.70;;
17921;SDS011;9086;50.966;3.144;2022-12-07T15:18:23;3.97;;;2.10;;
17921;SDS011;9086;50.966;3.144;2022-12-07T15:20:50;7.87;;;3.60;;
17921;SDS011;9086;50.966;3.144;2022-12-07T15:23:16;2.80;;;2.50;;
17921;SDS011;9086;50.966;3.144;2022-12-07T15:25:43;4.13;;;2.43;;
17921;SDS011;9086;50.966;3.144;2022-12-07T15:28:09;8.20;;;2.53;;
17921;SDS011;9086;50.966;3.144;2022-12-07T15:30:39;4.93;;;2.60;;
17921;SDS011;9086;50.966;3.144;2022-12-07T15:33:05;4.93;;;3.17;;
17921;SDS011;9086;50.966;3.144;2022-12-07T15:35:31;6.10;;;2.93;;
17921;SDS011;9086;50.966;3.144;2022-12-07T15:37:57;6.30;;;3.33;;
17921;SDS011;9086;50.966;3.144;2022-12-07T15:40:23;6.37;;;3.00;;
17921;SDS011;9086;50.966;3.144;2022-12-07T15:42:49;5.80;;;3.17;;
17921;SDS011;9086;50.966;3.144;2022-12-07T15:45:15;5.57;;;3.57;;
17921;SDS011;9086;50.966;3.144;2022-12-07T15:47:42;9.80;;;4.47;;
17921;SDS011;9086;50.966;3.144;2022-12-07T15:50:11;5.50;;;3.07;;
17921;SDS011;9086;50.966;3.144;2022-12-07T15:52:37;6.13;;;4.63;;
17921;SDS011;9086;50.966;3.144;2022-12-07T15:55:04;7.17;;;3.90;;
17921;SDS011;9086;50.966;3.144;2022-12-07T15:57:30;8.70;;;4.63;;
17921;SDS011;9086;50.966;3.144;2022-12-07T15:59:57;7.40;;;4.57;;
17921;SDS011;9086;50.966;3.144;2022-12-07T16:02:23;5.30;;;4.10;;
17921;SDS011;9086;50.966;3.144;2022-12-07T16:04:49;5.13;;;3.33;;
17921;SDS011;9086;50.966;3.144;2022-12-07T16:07:15;5.60;;;3.83;;
17921;SDS011;9086;50.966;3.144;2022-12-07T16:09:42;7.33;;;4.10;;
17921;SDS011;9086;50.966;3.144;2022-12-07T16:12:08;6.37;;;3.53;;
17921;SDS011;9086;50.966;3.144;2022-12-07T16:14:34;5.13;;;2.53;;
17921;SDS011;9086;50.966;3.144;2022-12-07T16:17:00;3.93;;;2.97;;
17921;SDS011;9086;50.966;3.144;2022-12-07T16:19:26;7.20;;;2.60;;
17921;SDS011;9086;50.966;3.144;2022-12-07T16:21:52;2.33;;;2.13;;
17921;SDS011;9086;50.966;3.144;2022-12-07T16:24:18;4.07;;;2.23;;
17921;SDS011;9086;50.966;3.144;2022-12-07T16:26:45;3.57;;;2.13;;
17921;SDS011;9086;50.966;3.144;2022-12-07T16:29:11;6.07;;;4.80;;
17921;SDS011;9086;50.966;3.144;2022-12-07T16:31:37;5.50;;;3.70;;
17921;SDS011;9086;50.966;3.144;2022-12-07T16:34:03;4.63;;;3.27;;
17921;SDS011;9086;50.966;3.144;2022-12-07T16:36:29;4.87;;;3.90;;
17921;SDS011;9086;50.966;3.144;2022-12-07T16:39:00;4.90;;;3.27;;
17921;SDS011;9086;50.966;3.144;2022-12-07T16:41:28;4.40;;;3.40;;
17921;SDS011;9086;50.966;3.144;2022-12-07T16:43:54;6.87;;;3.90;;
17921;SDS011;9086;50.966;3.144;2022-12-07T16:46:20;4.50;;;3.10;;